Time;durP1;ratioP1;P1;durP2;ratioP2;P2;SDS_P1;SDS_P2;PMS_P1;PMS_P2;Temp;Humidity;BMP_temperature;BMP_pressure;BME280_temperature;BME280_humidity;BME280_pressure;Samples;Min_cycle;Max_cycle;Signal;HPM_P1;HPM_P2
2023/03/16 05:44:19;;;;;;;;;;;;;;;6.34;100.00;99446.23;109569;1248;24158;-48
2023/03/16 05:47:06;;;;;;;;;;;;;;;6.39;100.00;99446.41;110873;1248;22531;-49
2023/03/16 05:49:35;;;;;;;;;;;;;;;6.43;100.00;99448.15;111542;1248;22544;-56
2023/03/16 05:52:05;;;;;;;;;;;;;;;6.52;100.00;99446.62;112822;1249;22472;-48
2023/03/16 05:54:32;;;;;;;;;;;;;;;6.67;100.00;99445.98;112446;1249;22548;-56
2023/03/16 05:57:05;;;;;;;;;;;;;;;6.84;100.00;99451.55;112953;1249;22939;-47
2023/03/16 05:59:32;;;;;;;;;;;;;;;6.95;100.00;99451.39;112889;1248;22412;-48
2023/03/16 06:02:01;;;;;;;;;;;;;;;7.08;100.00;99453.84;111301;1248;24144;-56
2023/03/16 06:04:27;;;;;;;;;;;;;;;7.17;100.00;99456.96;112897;1248;22434;-56
2023/03/16 06:06:54;;;;;;;;;;;;;;;7.24;100.00;99460.08;112856;1248;22388;-56
2023/03/16 06:09:28;;;;;;;;;;;;;;;7.27;100.00;99462.34;112880;1248;22435;-49
2023/03/16 06:11:55;;;;;;;;;;;;;;;7.30;100.00;99460.42;112817;1248;22488;-57
2023/03/16 06:14:22;;;;;;;;;;;;;;;7.32;100.00;99461.30;112912;1248;23185;-57
2023/03/16 06:16:55;;;;;;;;;;;;;;;7.37;100.00;99465.64;112790;1248;23383;-57
2023/03/16 06:19:23;;;;;;;;;;;;;;;7.40;100.00;99466.16;112749;1248;23238;-49
2023/03/16 06:21:53;;;;;;;;;;;;;;;7.42;100.00;99467.36;112597;1248;22530;-57
2023/03/16 06:24:24;;;;;;;;;;;;;;;7.46;100.00;99469.27;112796;1248;22477;-47
2023/03/16 06:26:52;;;;;;;;;;;;;;;7.50;100.00;99465.29;112676;1248;23126;-48
2023/03/16 06:29:19;;;;;;;;;;;;;;;7.54;100.00;99466.14;111975;1248;187823;-47
2023/03/16 06:31:46;;;;;;;;;;;;;;;7.62;100.00;99465.44;112487;1248;23551;-48
2023/03/16 06:34:14;;;;;;;;;;;;;;;7.70;100.00;99468.38;112466;1248;22421;-56
2023/03/16 06:36:45;;;;;;;;;;;;;;;7.79;100.00;99469.07;112204;1248;23733;-58
2023/03/16 06:39:13;;;;;;;;;;;;;;;7.88;100.00;99467.65;112085;1248;22949;-47
2023/03/16 06:41:52;;;;;;;;;;;;;;;8.00;100.00;99462.58;112347;1248;22519;-47
2023/03/16 06:48:40;;;;;;;;;;;;;;;8.28;100.00;99468.40;111578;1248;22943;-55
2023/03/16 06:52:04;;;;;;;;;;;;;;;8.38;100.00;99468.73;111629;1248;22510;-57
2023/03/16 06:55:37;;;;;;;;;;;;;;;8.50;100.00;99462.77;112128;1248;22962;-57
2023/03/16 06:59:00;;;;;;;;;;;;;;;8.68;100.00;99466.86;112071;1248;22467;-57
2023/03/16 07:02:43;;;;;;;;;;;;;;;8.86;99.95;99465.53;111943;1248;22502;-46
2023/03/16 07:05:49;;;;;;;;;;;;;;;9.02;98.84;99469.08;112701;1248;22426;-58
2023/03/16 07:08:41;;;;;;;;;;;;;;;9.09;97.92;99472.52;112384;1248;22509;-57
2023/03/16 07:11:08;;;;;;;;;;;;;;;9.13;96.99;99473.18;111681;1248;22556;-56
2023/03/16 07:13:35;;;;;;;;;;;;;;;9.18;96.58;99470.00;112363;1248;22458;-47
2023/03/16 07:16:03;;;;;;;;;;;;;;;9.22;96.09;99469.98;112654;1248;22412;-47
2023/03/16 07:18:36;;;;;;;;;;;;;;;9.31;96.18;99471.13;112535;1248;23622;-47
2023/03/16 07:21:03;;;;;;;;;;;;;;;9.43;95.73;99473.30;112612;1248;22441;-47
2023/03/16 07:23:33;;;;;;;;;;;;;;;9.57;94.99;99477.70;112813;1248;22368;-57
2023/03/16 07:26:02;;;;;;;;;;;;;;;9.75;93.92;99483.28;112575;1248;22921;-57
2023/03/16 07:28:33;;;;;;;;;;;;;;;9.88;92.70;99485.59;112023;1248;22795;-57
2023/03/16 07:31:02;;;;;;;;;;;;;;;9.98;92.09;99480.27;112528;1248;22868;-47
2023/03/16 07:33:37;;;;;;;;;;;;;;;10.06;91.31;99483.83;112640;1248;22860;-56
2023/03/16 07:36:05;;;;;;;;;;;;;;;10.14;90.38;99483.05;112602;1248;22411;-57
2023/03/16 07:38:33;;;;;;;;;;;;;;;10.24;89.70;99484.36;112640;1248;22494;-59
2023/03/16 07:41:04;;;;;;;;;;;;;;;10.33;89.10;99487.91;112801;1248;22413;-57
2023/03/16 07:43:33;;;;;;;;;;;;;;;10.45;88.54;99493.17;112818;1248;23178;-48
2023/03/16 07:46:00;;;;;;;;;;;;;;;10.58;87.60;99495.46;111549;1248;22510;-58
2023/03/16 07:48:28;;;;;;;;;;;;;;;10.67;86.95;99496.75;112916;1248;22436;-58
2023/03/16 07:50:58;;;;;;;;;;;;;;;10.72;85.33;99495.98;112626;1248;22494;-49
2023/03/16 07:53:32;;;;;;;;;;;;;;;10.73;85.22;99498.07;112931;1248;22378;-48
2023/03/16 07:56:11;;;;;;;;;;;;;;;10.77;84.35;99501.48;112790;1249;22899;-48
2023/03/16 07:58:38;;;;;;;;;;;;;;;10.78;83.12;99496.41;112757;1249;22455;-47
2023/03/16 08:01:05;;;;;;;;;;;;;;;10.81;82.75;99498.13;112922;1249;22425;-57
2023/03/16 08:03:33;;;;;;;;;;;;;;;10.86;81.96;99499.80;112889;1248;22407;-48
2023/03/16 08:06:04;;;;;;;;;;;;;;;10.92;81.55;99503.73;112712;1248;23136;-49
2023/03/16 08:08:32;;;;;;;;;;;;;;;10.93;80.87;99501.62;112710;1248;22384;-58
2023/03/16 08:10:59;;;;;;;;;;;;;;;10.95;80.40;99498.97;112714;1249;22451;-57
2023/03/16 08:13:35;;;;;;;;;;;;;;;10.96;80.14;99496.88;112747;1248;22449;-60
2023/03/16 08:16:04;;;;;;;;;;;;;;;10.95;79.77;99495.83;112773;1249;22399;-57
2023/03/16 08:18:36;;;;;;;;;;;;;;;10.94;79.69;99494.98;112743;1249;22347;-57
2023/03/16 08:21:03;;;;;;;;;;;;;;;10.97;79.60;99492.84;112542;1249;22516;-57
2023/03/16 08:23:32;;;;;;;;;;;;;;;10.99;79.00;99489.48;112688;1249;23579;-57
2023/03/16 08:25:59;;;;;;;;;;;;;;;10.98;78.55;99486.89;112793;1248;22430;-47
2023/03/16 08:28:29;;;;;;;;;;;;;;;10.86;78.07;99490.55;112299;1248;23396;-48
2023/03/16 08:30:57;;;;;;;;;;;;;;;10.71;78.15;99489.36;112638;1248;22390;-55
2023/03/16 08:33:35;;;;;;;;;;;;;;;10.60;78.72;99489.33;112699;1248;23001;-56
2023/03/16 08:36:06;;;;;;;;;;;;;;;10.56;78.95;99492.88;112757;1248;22385;-56
2023/03/16 08:38:33;;;;;;;;;;;;;;;10.53;78.83;99494.30;112718;1249;23134;-56
2023/03/16 08:41:03;;;;;;;;;;;;;;;10.48;78.71;99497.50;112635;1249;22805;-56
2023/03/16 08:43:31;;;;;;;;;;;;;;;10.42;78.89;99499.32;112443;1249;23306;-56
2023/03/16 08:46:04;;;;;;;;;;;;;;;10.36;79.04;99501.48;112517;1249;23006;-47
2023/03/16 08:48:41;;;;;;;;;;;;;;;10.32;78.77;99508.15;112277;1249;22477;-57
2023/03/16 08:51:11;;;;;;;;;;;;;;;10.28;79.22;99515.01;112257;1249;23563;-47
2023/03/16 08:53:39;;;;;;;;;;;;;;;10.28;79.51;99518.14;111915;1248;22454;-47
2023/03/16 08:56:06;;;;;;;;;;;;;;;10.27;79.57;99511.18;112203;1249;24810;-57
2023/03/16 08:58:34;;;;;;;;;;;;;;;10.25;79.24;99511.02;111364;1248;22769;-57
2023/03/16 09:01:02;;;;;;;;;;;;;;;10.23;79.48;99512.94;112639;1248;22415;-47
2023/03/16 09:03:34;;;;;;;;;;;;;;;10.20;79.29;99514.88;112499;1249;22506;-47
2023/03/16 09:06:04;;;;;;;;;;;;;;;10.19;79.47;99511.91;112318;1249;22455;-47
2023/03/16 09:08:31;;;;;;;;;;;;;;;10.22;79.37;99515.73;112380;1248;22483;-47
2023/03/16 09:11:06;;;;;;;;;;;;;;;10.29;79.12;99521.09;112467;1249;22502;-57
2023/03/16 09:14:06;;;;;;;;;;;;;;;10.34;78.48;99521.56;112532;1249;22449;-57
2023/03/16 09:16:34;;;;;;;;;;;;;;;10.34;78.43;99523.46;112478;1249;22539;-58
2023/03/16 09:19:06;;;;;;;;;;;;;;;10.37;78.41;99524.98;112493;1249;22791;-48
2023/03/16 09:21:38;;;;;;;;;;;;;;;10.42;78.19;99528.27;112176;1249;22486;-57
2023/03/16 09:24:07;;;;;;;;;;;;;;;10.45;77.68;99527.02;111575;1249;22543;-47
2023/03/16 09:26:38;;;;;;;;;;;;;;;10.42;78.14;99525.98;112643;1249;22739;-57
2023/03/16 09:29:05;;;;;;;;;;;;;;;10.44;78.24;99524.05;112642;1249;23032;-57
2023/03/16 09:31:35;;;;;;;;;;;;;;;10.50;77.40;99519.79;112767;1249;22816;-57
2023/03/16 09:34:03;;;;;;;;;;;;;;;10.53;76.63;99521.33;112766;1249;22499;-47
2023/03/16 09:36:34;;;;;;;;;;;;;;;10.60;76.18;99516.36;111804;1249;22487;-48
2023/03/16 09:39:03;;;;;;;;;;;;;;;10.68;75.62;99520.62;112136;1249;22518;-54
2023/03/16 09:41:43;;;;;;;;;;;;;;;10.76;75.51;99521.04;111925;1244;23162;-48
2023/03/16 09:44:12;;;;;;;;;;;;;;;10.85;75.73;99520.40;111782;1249;23366;-57
2023/03/16 09:46:45;;;;;;;;;;;;;;;10.93;75.92;99522.73;111991;1249;22569;-46
2023/03/16 09:49:19;;;;;;;;;;;;;;;11.10;75.88;99520.58;112263;1249;23410;-48
2023/03/16 09:52:02;;;;;;;;;;;;;;;11.26;75.75;99520.16;112650;1249;23059;-48
2023/03/16 09:58:04;;;;;;;;;;;;;;;11.55;74.15;99517.63;112476;1248;23603;-57
2023/03/16 10:00:40;;;;;;;;;;;;;;;11.65;73.52;99515.35;112687;1249;22405;-57
2023/03/16 10:03:20;;;;;;;;;;;;;;;11.74;72.84;99513.62;111634;1249;25329;-47
2023/03/16 10:10:28;;;;;;;;;;;;;;;12.16;72.27;99501.20;112086;1249;23023;-57
2023/03/16 10:13:22;;;;;;;;;;;;;;;12.33;71.63;99499.13;111960;1249;23203;-47
2023/03/16 10:15:49;;;;;;;;;;;;;;;12.44;70.66;99503.63;112637;1249;22419;-57
2023/03/16 10:18:28;;;;;;;;;;;;;;;12.47;69.12;99504.25;112544;1249;22955;-57
2023/03/16 10:20:57;;;;;;;;;;;;;;;12.41;68.16;99503.70;112605;1249;22479;-56
2023/03/16 10:23:24;;;;;;;;;;;;;;;12.32;68.19;99505.25;112143;1249;26460;-58
2023/03/16 10:25:54;;;;;;;;;;;;;;;12.34;68.27;99503.65;111366;1249;22542;-48
2023/03/16 10:28:30;;;;;;;;;;;;;;;12.40;67.83;99498.28;112357;1249;22924;-46
2023/03/16 10:31:03;;;;;;;;;;;;;;;12.50;67.55;99496.67;112160;1249;23131;-48
2023/03/16 10:33:32;;;;;;;;;;;;;;;12.57;67.07;99497.94;112538;1249;22634;-47
2023/03/16 10:36:27;;;;;;;;;;;;;;;12.62;66.96;99496.42;112370;1249;23017;-46
2023/03/16 10:39:19;;;;;;;;;;;;;;;12.66;66.52;99495.65;112495;1249;22359;-57
2023/03/16 10:41:54;;;;;;;;;;;;;;;12.69;66.57;99495.06;112777;1249;22896;-46
2023/03/16 10:44:25;;;;;;;;;;;;;;;12.65;66.19;99493.40;112580;1249;23144;-46
2023/03/16 10:47:00;;;;;;;;;;;;;;;12.54;66.42;99499.22;112367;1249;25527;-47
2023/03/16 10:49:32;;;;;;;;;;;;;;;12.43;66.49;99497.69;112787;1249;22430;-59
2023/03/16 10:52:03;;;;;;;;;;;;;;;12.35;67.03;99503.27;112678;1248;22483;-47
2023/03/16 10:54:32;;;;;;;;;;;;;;;12.30;67.01;99499.54;112544;1249;22575;-46
2023/03/16 10:57:00;;;;;;;;;;;;;;;12.15;66.43;99502.27;112083;1248;22941;-55
2023/03/16 10:59:28;;;;;;;;;;;;;;;11.99;66.74;99498.89;112551;1249;22436;-46
2023/03/16 11:01:55;;;;;;;;;;;;;;;11.92;67.55;99497.80;112118;1249;22618;-48
2023/03/16 11:04:21;;;;;;;;;;;;;;;11.92;67.55;99497.25;112580;1249;22452;-59
2023/03/16 11:06:53;;;;;;;;;;;;;;;11.94;67.64;99493.21;112805;1248;22601;-49
2023/03/16 11:09:22;;;;;;;;;;;;;;;11.99;67.94;99490.51;112759;1249;22403;-46
2023/03/16 11:11:51;;;;;;;;;;;;;;;12.01;68.03;99486.11;112281;1248;22465;-59
2023/03/16 11:14:19;;;;;;;;;;;;;;;11.99;67.69;99480.54;112680;1249;22536;-49
2023/03/16 11:16:56;;;;;;;;;;;;;;;11.91;66.86;99481.74;112750;1248;22386;-48
2023/03/16 11:19:28;;;;;;;;;;;;;;;11.82;67.07;99479.44;112614;1249;23477;-47
2023/03/16 11:22:13;;;;;;;;;;;;;;;11.76;66.72;99478.48;112610;1248;23096;-58
2023/03/16 11:24:43;;;;;;;;;;;;;;;11.70;67.34;99469.14;112825;1249;22394;-48
2023/03/16 11:27:30;;;;;;;;;;;;;;;11.69;67.67;99474.05;112571;1248;23242;-57
2023/03/16 11:30:04;;;;;;;;;;;;;;;11.69;67.60;99475.61;111380;1255;22481;-48
2023/03/16 11:32:39;;;;;;;;;;;;;;;11.71;66.88;99474.73;112229;1255;22535;-47
2023/03/16 11:35:12;;;;;;;;;;;;;;;11.72;67.02;99471.56;112081;1255;22431;-47
2023/03/16 11:37:56;;;;;;;;;;;;;;;11.67;66.82;99469.39;111695;1255;22478;-47
2023/03/16 11:40:40;;;;;;;;;;;;;;;11.66;67.14;99473.25;111884;1255;22489;-59
2023/03/16 11:43:36;;;;;;;;;;;;;;;11.74;67.31;99470.84;112022;1255;22403;-57
2023/03/16 11:46:22;;;;;;;;;;;;;;;11.84;65.68;99474.70;112120;1255;22894;-47
2023/03/16 11:48:58;;;;;;;;;;;;;;;11.81;65.10;99478.58;112198;1255;22532;-58
2023/03/16 11:51:28;;;;;;;;;;;;;;;11.74;65.72;99480.79;112205;1255;22422;-58
2023/03/16 11:54:08;;;;;;;;;;;;;;;11.73;66.09;99480.45;112229;1255;23362;-56
2023/03/16 11:56:38;;;;;;;;;;;;;;;11.72;64.74;99476.64;112071;1255;23609;-58
2023/03/16 11:59:24;;;;;;;;;;;;;;;11.65;64.17;99475.71;112213;1255;23370;-47
2023/03/16 12:01:50;;;;;;;;;;;;;;;11.56;64.77;99478.48;112193;1255;22736;-48
2023/03/16 12:04:27;;;;;;;;;;;;;;;11.50;65.06;99481.03;112207;1255;22418;-58
2023/03/16 12:07:02;;;;;;;;;;;;;;;11.44;64.45;99483.20;112394;1248;23121;-57
2023/03/16 12:09:41;;;;;;;;;;;;;;;11.45;64.43;99486.88;112776;1248;23200;-48
2023/03/16 12:12:23;;;;;;;;;;;;;;;11.44;64.38;99484.44;112727;1248;22431;-58
2023/03/16 12:14:54;;;;;;;;;;;;;;;11.41;64.36;99486.74;112842;1248;23314;-47
2023/03/16 12:17:24;;;;;;;;;;;;;;;11.38;64.73;99492.92;112824;1248;22474;-48
2023/03/16 12:19:53;;;;;;;;;;;;;;;11.37;64.27;99495.02;112798;1248;22390;-48
2023/03/16 12:22:40;;;;;;;;;;;;;;;11.33;64.21;99497.36;112693;1248;23153;-58
2023/03/16 12:25:12;;;;;;;;;;;;;;;11.33;64.31;99498.42;112153;1255;23564;-58
2023/03/16 12:27:38;;;;;;;;;;;;;;;11.32;64.82;99497.75;112074;1255;22427;-58
2023/03/16 12:30:05;;;;;;;;;;;;;;;11.31;65.45;99498.11;112074;1255;22908;-48
2023/03/16 12:32:33;;;;;;;;;;;;;;;11.30;65.45;99500.38;112327;1255;23435;-47
2023/03/16 12:35:21;;;;;;;;;;;;;;;11.27;65.99;99499.20;112317;1255;22399;-46
2023/03/16 12:37:55;;;;;;;;;;;;;;;11.24;66.11;99507.10;111752;1262;22470;-47
2023/03/16 12:40:43;;;;;;;;;;;;;;;11.18;66.49;99508.40;110783;1262;24266;-59
2023/03/16 12:43:25;;;;;;;;;;;;;;;11.12;66.93;99510.42;111355;1262;22493;-58
2023/03/16 12:46:00;;;;;;;;;;;;;;;11.08;66.75;99512.23;111802;1262;22501;-47
2023/03/16 12:48:29;;;;;;;;;;;;;;;11.07;66.84;99517.65;111768;1262;23203;-57
2023/03/16 12:50:57;;;;;;;;;;;;;;;11.08;67.37;99512.05;111700;1262;22455;-58
2023/03/16 12:53:27;;;;;;;;;;;;;;;11.13;67.63;99519.48;110903;1262;22482;-59
2023/03/16 12:55:56;;;;;;;;;;;;;;;11.22;67.91;99521.63;111782;1262;23055;-57
2023/03/16 12:58:23;;;;;;;;;;;;;;;11.27;67.98;99524.52;111784;1262;22511;-58
2023/03/16 13:00:57;;;;;;;;;;;;;;;11.26;68.34;99524.02;111798;1262;22531;-47
2023/03/16 13:03:24;;;;;;;;;;;;;;;11.24;67.94;99528.39;111589;1256;24956;-59
2023/03/16 13:05:52;;;;;;;;;;;;;;;11.16;68.36;99533.23;111188;1256;25281;-59
2023/03/16 13:08:20;;;;;;;;;;;;;;;11.08;68.86;99533.16;112304;1256;22447;-46
2023/03/16 13:11:10;;;;;;;;;;;;;;;11.02;69.34;99533.08;112214;1256;22393;-58
2023/03/16 13:13:51;;;;;;;;;;;;;;;10.96;69.80;99532.30;112291;1256;22378;-47
2023/03/16 13:16:27;;;;;;;;;;;;;;;10.92;70.22;99533.92;112969;1248;22815;-46
